Time;durP1;ratioP1;P1;durP2;ratioP2;P2;SDS_P1;SDS_P2;PMS_P1;PMS_P2;Temp;Humidity;BMP_temperature;BMP_pressure;BME280_temperature;BME280_humidity;BME280_pressure;Samples;Min_cycle;Max_cycle;Signal;HPM_P1;HPM_P2
2023/10/20 00:00:52;;;;;;;12.80;10.88;;;15.50;99.90;;;;;;5044564;28;20613;-42
2023/10/20 00:03:17;;;;;;;12.68;9.95;;;15.50;99.90;;;;;;5043508;28;20321;-44
2023/10/20 00:05:43;;;;;;;14.68;12.13;;;15.50;99.90;;;;;;5043433;28;20371;-43
2023/10/20 00:08:08;;;;;;;16.35;12.02;;;15.50;99.90;;;;;;5043506;28;20017;-42
2023/10/20 00:10:37;;;;;;;17.60;12.85;;;15.50;99.90;;;;;;5043431;28;20021;-43
2023/10/20 00:13:04;;;;;;;13.20;11.80;;;15.50;99.90;;;;;;5042436;28;20032;-43
2023/10/20 00:15:30;;;;;;;14.38;12.88;;;15.50;99.90;;;;;;5043730;28;20095;-41
2023/10/20 00:17:55;;;;;;;14.70;13.15;;;15.50;99.90;;;;;;5043610;28;20028;-42
2023/10/20 00:20:21;;;;;;;15.77;12.60;;;15.50;99.90;;;;;;5042304;28;20031;-43
2023/10/20 00:22:46;;;;;;;14.77;12.43;;;15.50;99.90;;;;;;5044940;28;20037;-43
2023/10/20 00:25:12;;;;;;;16.55;14.85;;;15.50;99.90;;;;;;5047139;28;20480;-43
2023/10/20 00:27:38;;;;;;;16.40;14.65;;;15.50;99.90;;;;;;5046797;28;20051;-43
2023/10/20 00:30:07;;;;;;;15.82;14.07;;;15.40;99.90;;;;;;5046473;28;20032;-44
2023/10/20 00:32:34;;;;;;;19.27;14.88;;;15.40;99.90;;;;;;5046746;28;20099;-43
2023/10/20 00:35:03;;;;;;;18.50;16.52;;;15.40;99.90;;;;;;5046254;28;20507;-44
2023/10/20 00:37:31;;;;;;;19.75;17.08;;;15.40;99.90;;;;;;5047329;28;20025;-43
2023/10/20 00:39:57;;;;;;;16.00;14.40;;;15.40;99.90;;;;;;5046932;28;20383;-43
2023/10/20 00:42:22;;;;;;;17.13;15.27;;;15.40;99.90;;;;;;5046446;28;20075;-42
2023/10/20 00:44:48;;;;;;;19.05;14.93;;;15.40;99.90;;;;;;5046570;28;20021;-43
2023/10/20 00:47:14;;;;;;;18.15;16.05;;;15.40;99.90;;;;;;5046533;28;20048;-43
2023/10/20 00:49:40;;;;;;;16.25;14.55;;;15.40;99.90;;;;;;5047462;28;20017;-43
2023/10/20 00:52:07;;;;;;;18.48;16.58;;;15.40;99.90;;;;;;5047115;28;20037;-44
2023/10/20 00:54:33;;;;;;;20.02;16.88;;;15.40;99.90;;;;;;5046928;28;20025;-43
2023/10/20 00:56:59;;;;;;;21.65;17.60;;;15.40;99.90;;;;;;5043434;28;20535;-43
2023/10/20 00:59:24;;;;;;;18.00;16.20;;;15.40;99.90;;;;;;5047651;28;20104;-43
2023/10/20 01:01:50;;;;;;;18.92;16.33;;;15.30;99.90;;;;;;5046082;28;20044;-43
2023/10/20 01:04:15;;;;;;;18.27;15.73;;;15.30;99.90;;;;;;5046513;28;20044;-43
2023/10/20 01:06:43;;;;;;;22.30;19.88;;;15.30;99.90;;;;;;5046352;28;20025;-44
2023/10/20 01:09:10;;;;;;;21.23;18.20;;;15.30;99.90;;;;;;5025734;28;20051;-43
2023/10/20 01:11:36;;;;;;;20.73;18.08;;;15.30;99.90;;;;;;5041115;28;20017;-42
2023/10/20 01:14:02;;;;;;;18.38;16.30;;;15.30;99.90;;;;;;5046458;28;20499;-43
2023/10/20 01:16:28;;;;;;;16.70;14.85;;;15.30;99.90;;;;;;5046450;28;20041;-42
2023/10/20 01:18:53;;;;;;;18.25;16.35;;;15.30;99.90;;;;;;5046624;28;20025;-42
2023/10/20 01:21:19;;;;;;;19.48;17.38;;;15.20;99.90;;;;;;5045915;28;20543;-42
2023/10/20 01:23:44;;;;;;;19.83;16.13;;;15.20;99.90;;;;;;5045793;28;20428;-42
2023/10/20 01:26:10;;;;;;;18.90;15.98;;;15.20;99.90;;;;;;5046221;28;20017;-43
2023/10/20 01:28:35;;;;;;;25.70;20.77;;;15.20;99.90;;;;;;5046960;28;20032;-43
2023/10/20 01:31:01;;;;;;;20.58;18.15;;;15.20;99.90;;;;;;5045196;28;20163;-43
2023/10/20 01:33:27;;;;;;;20.67;17.23;;;15.20;99.90;;;;;;5045995;28;20174;-42
2023/10/20 01:35:52;;;;;;;17.52;15.63;;;15.10;99.90;;;;;;5045680;28;20171;-42
2023/10/20 01:38:18;;;;;;;20.42;17.98;;;15.10;99.90;;;;;;5045834;28;20478;-43
2023/10/20 01:40:46;;;;;;;22.58;18.30;;;15.20;99.90;;;;;;5046649;28;20127;-42
2023/10/20 01:43:12;;;;;;;24.50;19.02;;;15.10;99.90;;;;;;5045800;28;20059;-42
2023/10/20 01:45:37;;;;;;;21.13;18.83;;;15.10;99.90;;;;;;5045347;28;20029;-42
2023/10/20 01:48:03;;;;;;;24.17;19.85;;;15.10;99.90;;;;;;5046070;28;20017;-43
2023/10/20 01:50:29;;;;;;;23.05;18.77;;;15.00;99.90;;;;;;5046431;28;20562;-43
2023/10/20 01:52:54;;;;;;;22.33;19.05;;;15.00;99.90;;;;;;5045357;28;20099;-42
2023/10/20 01:55:20;;;;;;;24.98;19.95;;;15.00;99.90;;;;;;5045788;28;20037;-43
2023/10/20 01:57:45;;;;;;;22.98;20.33;;;15.00;99.90;;;;;;5045186;28;20132;-44
2023/10/20 02:00:14;;;;;;;24.73;19.95;;;14.90;99.90;;;;;;5045505;28;20029;-43
2023/10/20 02:02:40;;;;;;;23.77;18.45;;;14.90;99.90;;;;;;5045480;28;20490;-44
2023/10/20 02:05:09;;;;;;;23.67;20.48;;;14.90;99.90;;;;;;5044917;28;20468;-44
2023/10/20 02:07:36;;;;;;;21.70;18.75;;;14.90;99.90;;;;;;5045660;28;20017;-44
2023/10/20 02:10:02;;;;;;;25.80;20.50;;;14.90;99.90;;;;;;5045031;28;20349;-44
2023/10/20 02:12:27;;;;;;;25.13;20.33;;;14.90;99.90;;;;;;5045111;28;20024;-42
2023/10/20 02:14:53;;;;;;;23.63;20.25;;;14.80;99.90;;;;;;5045636;28;20376;-43
2023/10/20 02:17:19;;;;;;;26.60;21.17;;;14.80;99.90;;;;;;5045610;28;20392;-43
2023/10/20 02:19:45;;;;;;;22.75;19.77;;;14.80;99.90;;;;;;5040997;28;20383;-43
2023/10/20 02:22:11;;;;;;;25.60;20.23;;;14.80;99.90;;;;;;5044782;28;20079;-43
2023/10/20 02:24:37;;;;;;;27.08;21.25;;;14.80;99.90;;;;;;5045593;28;20065;-43
2023/10/20 02:27:03;;;;;;;22.40;19.60;;;14.80;99.90;;;;;;5044614;28;20063;-43
2023/10/20 02:29:28;;;;;;;23.58;19.75;;;14.80;99.90;;;;;;5045694;28;20052;-43
2023/10/20 02:31:54;;;;;;;28.65;21.90;;;14.80;99.90;;;;;;5045468;28;20032;-43
2023/10/20 02:34:20;;;;;;;29.25;22.10;;;14.80;99.90;;;;;;5043824;28;20037;-44
2023/10/20 02:36:48;;;;;;;25.05;20.40;;;14.70;99.90;;;;;;5045687;28;20182;-43
2023/10/20 02:39:13;;;;;;;26.58;20.58;;;14.70;99.90;;;;;;5044892;28;20190;-42
2023/10/20 02:41:39;;;;;;;25.27;19.35;;;14.70;99.90;;;;;;5044807;28;20442;-43
2023/10/20 02:44:05;;;;;;;24.58;19.35;;;14.70;99.90;;;;;;5044887;28;20028;-43
2023/10/20 02:46:30;;;;;;;26.77;19.88;;;14.70;99.90;;;;;;5045150;28;20353;-43
2023/10/20 02:48:56;;;;;;;31.40;23.15;;;14.70;99.90;;;;;;5044529;28;20379;-43
2023/10/20 02:51:22;;;;;;;25.42;20.23;;;14.70;99.90;;;;;;5045333;28;20033;-43
2023/10/20 02:53:47;;;;;;;33.33;23.45;;;14.70;99.90;;;;;;5045815;28;20028;-43
2023/10/20 02:56:18;;;;;;;26.95;21.40;;;14.70;99.90;;;;;;5044356;28;20044;-43
2023/10/20 02:58:45;;;;;;;34.70;24.30;;;14.70;99.90;;;;;;5045088;28;20484;-43
2023/10/20 03:01:13;;;;;;;30.92;23.20;;;14.60;99.90;;;;;;5043996;28;20025;-43
2023/10/20 03:03:39;;;;;;;30.77;21.70;;;14.60;99.90;;;;;;5044972;28;20070;-42
2023/10/20 03:06:06;;;;;;;31.73;24.20;;;14.60;99.90;;;;;;5044190;28;20028;-42
2023/10/20 03:08:33;;;;;;;35.90;26.83;;;14.50;99.90;;;;;;5044409;28;20124;-43
2023/10/20 03:10:58;;;;;;;30.45;22.48;;;14.50;99.90;;;;;;5044436;28;20032;-43
2023/10/20 03:13:25;;;;;;;34.88;24.42;;;14.40;99.90;;;;;;5045282;28;20039;-43
2023/10/20 03:15:51;;;;;;;32.58;23.70;;;14.40;99.90;;;;;;5043815;28;20075;-43
2023/10/20 03:18:17;;;;;;;30.60;22.13;;;14.40;99.90;;;;;;5044046;28;20123;-43
2023/10/20 03:20:44;;;;;;;31.70;23.08;;;14.30;99.90;;;;;;5044513;28;20104;-43
2023/10/20 03:23:13;;;;;;;30.20;21.85;;;14.30;99.90;;;;;;5043365;28;20585;-43
2023/10/20 03:25:40;;;;;;;29.55;21.73;;;14.30;99.90;;;;;;5044444;28;20036;-43
2023/10/20 03:28:07;;;;;;;32.13;23.38;;;14.30;99.90;;;;;;5044411;28;20035;-43
2023/10/20 03:30:40;;;;;;;32.10;22.50;;;14.30;99.90;;;;;;5043850;28;20021;-43
2023/10/20 03:33:13;;;;;;;35.22;24.83;;;14.20;99.90;;;;;;5044069;28;20491;-43
2023/10/20 03:35:40;;;;;;;37.28;24.42;;;14.20;99.90;;;;;;5044632;28;20071;-43
2023/10/20 03:38:06;;;;;;;40.63;26.55;;;14.10;99.90;;;;;;5044150;28;20060;-44
2023/10/20 03:40:36;;;;;;;37.92;23.35;;;14.10;99.90;;;;;;5044502;28;20029;-44
2023/10/20 03:43:03;;;;;;;36.45;24.90;;;14.10;99.90;;;;;;5043572;28;20025;-44
2023/10/20 03:45:29;;;;;;;31.55;22.33;;;14.00;99.90;;;;;;5044257;28;20036;-43
2023/10/20 03:47:54;;;;;;;33.85;22.38;;;14.00;99.90;;;;;;5043694;28;20021;-43
2023/10/20 03:50:21;;;;;;;30.35;20.60;;;14.00;99.90;;;;;;5042903;28;20067;-43
2023/10/20 03:52:47;;;;;;;32.97;22.30;;;14.00;99.90;;;;;;5043797;28;20518;-43
2023/10/20 03:55:16;;;;;;;32.58;21.10;;;14.00;99.90;;;;;;5043203;28;20625;-42
2023/10/20 03:57:43;;;;;;;32.17;22.27;;;13.90;99.90;;;;;;5042451;28;20033;-43
2023/10/20 04:00:17;;;;;;;35.60;23.75;;;13.90;99.90;;;;;;5043656;28;20017;-44
2023/10/20 04:02:46;;;;;;;38.55;24.73;;;13.90;99.90;;;;;;5043570;28;20029;-43
2023/10/20 04:05:13;;;;;;;38.55;25.55;;;13.90;99.90;;;;;;5042895;28;20738;-43
2023/10/20 04:07:38;;;;;;;36.22;24.08;;;13.80;99.90;;;;;;5044294;28;20419;-42
2023/10/20 04:10:06;;;;;;;32.28;21.48;;;13.80;99.90;;;;;;5043657;28;20039;-43
2023/10/20 04:12:31;;;;;;;33.42;23.08;;;13.80;99.90;;;;;;5042762;28;20051;-46
2023/10/20 04:14:57;;;;;;;31.77;21.50;;;13.70;99.90;;;;;;5043524;28;20072;-43
2023/10/20 04:17:23;;;;;;;37.30;24.20;;;13.80;99.90;;;;;;5043695;28;20025;-43
2023/10/20 04:19:49;;;;;;;34.35;23.63;;;13.70;99.90;;;;;;5042950;28;20387;-43
2023/10/20 04:22:16;;;;;;;34.63;22.25;;;13.70;99.90;;;;;;5043251;28;20071;-42
2023/10/20 04:24:42;;;;;;;29.73;20.55;;;13.70;99.90;;;;;;5043628;28;20049;-42
2023/10/20 04:27:21;;;;;;;33.17;21.65;;;13.60;99.90;;;;;;5042296;28;20079;-42
2023/10/20 04:51:45;;;;;;;28.95;19.98;;;13.40;99.90;;;;;;5043702;28;20041;-43
2023/10/20 04:54:10;;;;;;;37.00;22.85;;;13.40;99.90;;;;;;5041758;28;20171;-43
2023/10/20 04:59:23;;;;;;;36.30;23.60;;;13.40;99.90;;;;;;5042788;28;20112;-42
2023/10/20 05:01:49;;;;;;;35.22;22.73;;;13.40;99.90;;;;;;5042947;28;20037;-43
2023/10/20 05:04:24;;;;;;;38.13;23.65;;;13.40;99.90;;;;;;5042350;28;20131;-43
2023/10/20 05:07:05;;;;;;;32.28;21.88;;;13.30;99.90;;;;;;5043671;28;20021;-44
2023/10/20 05:09:33;;;;;;;31.15;20.80;;;13.30;99.90;;;;;;5043243;28;20025;-44
2023/10/20 05:11:59;;;;;;;29.27;20.55;;;13.30;99.90;;;;;;5046703;28;20029;-44
2023/10/20 05:14:27;;;;;;;31.45;21.80;;;13.30;99.90;;;;;;5046763;28;20380;-44
2023/10/20 05:16:55;;;;;;;28.58;19.63;;;13.30;99.90;;;;;;5046003;28;20059;-44
2023/10/20 05:19:20;;;;;;;27.38;18.55;;;13.20;99.90;;;;;;5046361;28;20025;-44
2023/10/20 05:21:46;;;;;;;26.73;17.35;;;13.30;99.90;;;;;;5046305;28;20067;-43
2023/10/20 05:24:11;;;;;;;27.45;19.65;;;13.20;99.90;;;;;;5045323;28;20509;-42
2023/10/20 05:26:37;;;;;;;24.40;17.85;;;13.20;99.90;;;;;;5046762;28;20041;-43
2023/10/20 05:29:03;;;;;;;25.73;16.73;;;13.20;99.90;;;;;;5044964;28;20017;-43
2023/10/20 05:31:31;;;;;;;22.45;16.20;;;13.20;99.90;;;;;;5046400;28;20022;-43
2023/10/20 05:33:57;;;;;;;20.30;14.15;;;13.10;99.90;;;;;;5046218;28;20061;-42
2023/10/20 05:36:22;;;;;;;23.33;15.48;;;13.20;99.90;;;;;;5044971;28;20040;-41
2023/10/20 05:38:48;;;;;;;21.33;15.45;;;13.20;99.90;;;;;;5046669;28;20483;-44
2023/10/20 05:41:14;;;;;;;20.58;15.35;;;13.20;99.90;;;;;;5045749;28;20661;-43
2023/10/20 05:43:41;;;;;;;19.25;14.35;;;13.20;99.90;;;;;;5045731;28;20112;-43
2023/10/20 05:46:13;;;;;;;21.35;14.25;;;13.20;99.90;;;;;;5045719;28;20029;-43
2023/10/20 05:48:39;;;;;;;17.98;13.02;;;13.10;99.90;;;;;;5046424;28;20036;-44
2023/10/20 05:51:04;;;;;;;20.30;13.43;;;13.10;99.90;;;;;;5044901;28;20630;-44
2023/10/20 05:53:30;;;;;;;18.63;13.23;;;13.10;99.90;;;;;;5046750;28;20056;-44
2023/10/20 05:55:55;;;;;;;17.20;12.98;;;13.10;99.90;;;;;;5046080;28;20498;-42
2023/10/20 05:58:22;;;;;;;15.43;12.63;;;13.10;99.90;;;;;;5045245;28;20475;-44
2023/10/20 06:00:48;;;;;;;15.63;12.48;;;13.00;99.90;;;;;;5045900;28;20388;-43
2023/10/20 06:03:14;;;;;;;15.68;11.25;;;13.10;99.90;;;;;;5045686;28;20021;-44
2023/10/20 06:05:40;;;;;;;15.05;10.77;;;13.00;99.90;;;;;;5045608;28;20036;-43
2023/10/20 06:08:06;;;;;;;13.45;10.90;;;13.00;99.90;;;;;;5045584;28;20028;-43
2023/10/20 06:10:31;;;;;;;14.27;11.57;;;13.00;99.90;;;;;;5045949;28;20040;-42
2023/10/20 06:12:57;;;;;;;14.93;11.50;;;13.00;99.90;;;;;;5045493;28;20033;-43
2023/10/20 06:15:23;;;;;;;14.45;11.20;;;13.00;99.90;;;;;;5045622;28;20029;-43
2023/10/20 06:17:50;;;;;;;16.80;12.25;;;12.90;99.90;;;;;;5045847;28;20025;-42
2023/10/20 06:20:16;;;;;;;16.08;12.10;;;12.90;99.90;;;;;;5045583;28;20612;-43
2023/10/20 06:22:42;;;;;;;14.20;11.60;;;12.90;99.90;;;;;;5045280;28;20059;-44
2023/10/20 06:25:14;;;;;;;18.25;13.10;;;12.90;99.90;;;;;;5044882;28;20033;-42
2023/10/20 06:27:43;;;;;;;19.38;13.75;;;12.90;99.90;;;;;;5045279;28;20098;-43
2023/10/20 06:30:15;;;;;;;20.35;13.65;;;12.90;99.90;;;;;;5044865;28;20028;-42
2023/10/20 06:32:45;;;;;;;22.42;15.00;;;12.90;99.90;;;;;;5044318;28;20096;-42
2023/10/20 06:35:12;;;;;;;23.20;16.65;;;12.80;99.90;;;;;;5044714;28;20037;-42
2023/10/20 06:37:46;;;;;;;23.90;15.50;;;12.80;99.90;;;;;;5044872;28;20025;-43
2023/10/20 06:40:15;;;;;;;21.98;14.95;;;12.80;99.90;;;;;;5024372;28;20054;-43
2023/10/20 06:42:45;;;;;;;28.58;18.77;;;12.70;99.90;;;;;;5039901;28;20071;-44
2023/10/20 06:45:11;;;;;;;28.33;18.08;;;12.70;99.90;;;;;;5044598;28;20696;-43
2023/10/20 06:47:39;;;;;;;22.33;16.02;;;12.70;99.90;;;;;;5044897;28;20070;-44
2023/10/20 06:50:05;;;;;;;24.15;16.67;;;12.70;99.90;;;;;;5044171;28;20029;-44
2023/10/20 06:52:31;;;;;;;22.40;15.63;;;12.60;99.90;;;;;;5045086;28;20036;-44
2023/10/20 06:54:57;;;;;;;23.58;15.98;;;12.60;99.90;;;;;;5043596;28;20090;-43
2023/10/20 06:57:23;;;;;;;23.83;14.77;;;12.60;99.90;;;;;;5044605;28;20414;-42
2023/10/20 06:59:51;;;;;;;24.35;16.50;;;12.60;99.90;;;;;;5045504;28;20036;-43
2023/10/20 07:02:17;;;;;;;26.77;16.50;;;12.60;99.90;;;;;;5043348;28;20433;-44
2023/10/20 07:04:43;;;;;;;22.42;15.00;;;12.60;99.90;;;;;;5044934;28;20079;-42
2023/10/20 07:07:15;;;;;;;21.40;14.57;;;12.50;99.90;;;;;;5043317;28;20079;-43
2023/10/20 07:09:41;;;;;;;20.70;13.90;;;12.50;99.90;;;;;;5044615;28;20029;-42
2023/10/20 07:12:07;;;;;;;20.33;13.70;;;12.50;99.90;;;;;;5044025;28;20029;-42
2023/10/20 07:14:34;;;;;;;18.98;13.10;;;12.50;99.90;;;;;;5043250;28;20128;-43
2023/10/20 07:17:03;;;;;;;19.10;13.02;;;12.40;99.90;;;;;;5044911;28;20394;-42
2023/10/20 07:19:31;;;;;;;17.63;11.68;;;12.50;99.90;;;;;;5044111;28;20106;-43
2023/10/20 07:21:57;;;;;;;16.08;11.15;;;12.50;99.90;;;;;;5044237;28;20455;-42
2023/10/20 07:24:23;;;;;;;15.95;11.20;;;12.40;99.90;;;;;;5044371;28;20047;-43
2023/10/20 07:26:49;;;;;;;18.67;12.02;;;12.50;99.90;;;;;;5044399;28;20581;-43
2023/10/20 07:29:15;;;;;;;17.40;11.77;;;12.40;99.90;;;;;;5043198;28;20028;-43
2023/10/20 07:31:42;;;;;;;15.68;10.68;;;12.40;99.90;;;;;;5044540;28;20044;-45
2023/10/20 07:34:09;;;;;;;15.05;10.07;;;12.40;99.90;;;;;;5042971;28;20041;-43
2023/10/20 07:36:35;;;;;;;13.68;9.30;;;12.30;99.90;;;;;;5043717;28;20037;-43
2023/10/20 07:39:01;;;;;;;14.50;9.75;;;12.30;99.90;;;;;;5043531;28;20040;-44
2023/10/20 07:41:27;;;;;;;10.93;8.45;;;12.30;99.90;;;;;;5044475;28;20025;-43
2023/10/20 07:43:52;;;;;;;13.57;9.68;;;12.30;99.90;;;;;;5043339;28;20102;-43
2023/10/20 07:46:18;;;;;;;13.65;9.68;;;12.30;99.90;;;;;;5043858;28;20021;-42
2023/10/20 07:48:44;;;;;;;13.85;9.43;;;12.30;99.90;;;;;;5043834;28;20071;-43
2023/10/20 07:51:10;;;;;;;9.52;7.63;;;12.20;99.90;;;;;;5042493;28;20028;-43
2023/10/20 07:53:35;;;;;;;12.05;8.50;;;12.20;99.90;;;;;;5044500;28;20037;-44
2023/10/20 07:56:02;;;;;;;9.63;7.28;;;12.20;99.90;;;;;;5043831;28;20055;-42
2023/10/20 07:58:28;;;;;;;10.35;7.07;;;12.20;99.90;;;;;;5043744;28;20291;-42
2023/10/20 08:00:54;;;;;;;9.90;7.13;;;12.20;99.90;;;;;;5044270;28;20140;-43
2023/10/20 08:03:19;;;;;;;8.52;6.50;;;12.20;99.90;;;;;;5042674;28;20029;-44
2023/10/20 08:05:45;;;;;;;11.27;7.03;;;12.20;99.90;;;;;;5043748;28;20029;-43
2023/10/20 08:08:10;;;;;;;9.02;6.97;;;12.10;99.90;;;;;;5043691;28;20028;-43
2023/10/20 08:10:37;;;;;;;8.80;6.53;;;12.10;99.90;;;;;;5043616;28;20025;-44
2023/10/20 08:13:03;;;;;;;11.00;6.82;;;12.10;99.90;;;;;;5043569;28;20033;-43
2023/10/20 08:15:29;;;;;;;10.43;6.88;;;12.10;99.90;;;;;;5043459;28;20037;-42
2023/10/20 08:17:55;;;;;;;8.32;6.50;;;12.10;99.90;;;;;;5044174;28;20036;-42
2023/10/20 08:20:21;;;;;;;7.88;6.35;;;12.10;99.90;;;;;;5043139;28;20017;-42
2023/10/20 08:22:47;;;;;;;6.75;5.80;;;12.10;99.90;;;;;;5044062;28;20040;-44
2023/10/20 08:25:14;;;;;;;6.43;5.20;;;12.10;99.90;;;;;;5042844;28;20017;-43
2023/10/20 08:27:40;;;;;;;7.43;6.05;;;12.00;99.90;;;;;;5043306;28;20112;-42
2023/10/20 08:30:07;;;;;;;7.15;5.00;;;12.00;99.90;;;;;;5042875;28;20116;-43
2023/10/20 08:32:32;;;;;;;6.38;5.65;;;12.00;99.90;;;;;;5043124;28;20029;-43
2023/10/20 08:34:58;;;;;;;5.55;4.45;;;11.90;99.90;;;;;;5043481;28;20167;-43
2023/10/20 08:37:24;;;;;;;6.28;5.13;;;11.90;99.90;;;;;;5043713;28;20021;-42
2023/10/20 08:39:50;;;;;;;4.60;3.85;;;11.90;99.90;;;;;;5043651;28;20025;-43
2023/10/20 08:42:20;;;;;;;4.43;4.03;;;11.90;99.90;;;;;;5043153;28;20484;-43
2023/10/20 08:44:46;;;;;;;4.32;3.92;;;11.90;99.90;;;;;;5046112;28;20025;-43
2023/10/20 08:47:21;;;;;;;4.40;3.60;;;11.90;99.90;;;;;;5046228;28;20032;-42
2023/10/20 08:49:47;;;;;;;4.68;4.00;;;11.90;99.90;;;;;;5048384;28;20102;-43
2023/10/20 08:52:13;;;;;;;3.90;3.50;;;11.90;99.90;;;;;;5046419;28;20039;-43
2023/10/20 08:54:39;;;;;;;4.63;4.03;;;11.90;99.90;;;;;;5047170;28;20391;-43
2023/10/20 08:57:05;;;;;;;3.83;3.40;;;11.80;99.90;;;;;;5046604;28;20033;-43
2023/10/20 08:59:31;;;;;;;4.53;4.07;;;11.80;99.90;;;;;;5047419;28;20025;-42
2023/10/20 09:01:57;;;;;;;3.53;3.10;;;11.80;99.90;;;;;;5046208;28;20426;-43
2023/10/20 09:04:28;;;;;;;4.60;3.05;;;11.80;99.90;;;;;;5026673;28;20021;-43
2023/10/20 09:06:54;;;;;;;3.45;3.05;;;11.70;99.90;;;;;;5036463;28;20074;-43
2023/10/20 09:09:20;;;;;;;3.10;2.60;;;11.70;99.90;;;;;;5047627;28;20024;-43
2023/10/20 09:11:46;;;;;;;4.05;2.42;;;11.60;99.90;;;;;;5047971;28;20032;-42
2023/10/20 09:14:14;;;;;;;2.80;2.58;;;11.60;99.90;;;;;;5046326;28;20024;-46
2023/10/20 09:16:39;;;;;;;2.92;2.47;;;11.60;99.90;;;;;;5046787;28;20472;-43
2023/10/20 09:19:06;;;;;;;2.50;2.30;;;11.50;99.90;;;;;;5046445;28;20025;-44
2023/10/20 09:21:31;;;;;;;2.50;2.30;;;11.50;99.90;;;;;;5045952;28;20029;-43
2023/10/20 09:24:04;;;;;;;2.83;2.30;;;11.50;99.90;;;;;;5046659;28;20036;-43
2023/10/20 09:26:34;;;;;;;2.10;1.90;;;11.50;99.90;;;;;;5046649;28;20013;-42
2023/10/20 09:29:00;;;;;;;2.20;2.00;;;11.50;99.90;;;;;;5044496;28;20476;-43
2023/10/20 09:31:27;;;;;;;3.10;2.70;;;11.50;99.90;;;;;;5047208;28;20066;-43
2023/10/20 09:33:52;;;;;;;3.58;2.67;;;11.50;99.90;;;;;;5046618;28;20057;-43
2023/10/20 09:36:19;;;;;;;2.95;2.20;;;11.50;99.90;;;;;;5046021;28;20498;-43
2023/10/20 09:38:50;;;;;;;4.63;1.92;;;11.40;99.90;;;;;;5046467;28;20017;-43
2023/10/20 09:41:17;;;;;;;1.85;1.75;;;11.40;99.90;;;;;;5025990;28;20029;-42
2023/10/20 09:43:47;;;;;;;2.22;2.00;;;11.40;99.90;;;;;;5041229;28;20094;-42
2023/10/20 09:46:19;;;;;;;1.90;1.80;;;11.40;99.90;;;;;;5045735;28;20559;-42
2023/10/20 09:48:47;;;;;;;1.60;1.48;;;11.30;99.90;;;;;;5046486;28;20428;-42
2023/10/20 09:51:15;;;;;;;1.88;1.67;;;11.30;99.90;;;;;;5046000;28;20044;-42
2023/10/20 09:53:42;;;;;;;1.80;1.60;;;11.30;99.90;;;;;;5046173;28;20016;-42
2023/10/20 09:56:09;;;;;;;1.60;1.45;;;11.30;99.90;;;;;;5044811;28;20151;-43
2023/10/20 09:58:37;;;;;;;1.42;1.33;;;11.30;99.90;;;;;;5046178;28;20540;-42
2023/10/20 10:01:03;;;;;;;2.05;1.40;;;11.30;99.90;;;;;;5045732;28;20032;-43
2023/10/20 10:03:39;;;;;;;1.95;1.55;;;11.30;99.90;;;;;;5045351;28;20116;-42
2023/10/20 10:06:10;;;;;;;1.67;1.50;;;11.30;99.90;;;;;;5045578;28;20058;-43
2023/10/20 10:08:40;;;;;;;1.80;1.48;;;11.40;99.90;;;;;;5045709;28;20023;-42
2023/10/20 10:11:26;;;;;;;1.40;1.30;;;11.40;99.90;;;;;;5045116;28;20017;-43
2023/10/20 10:13:59;;;;;;;1.30;1.20;;;11.40;99.90;;;;;;5046141;28;20025;-42
2023/10/20 10:16:25;;;;;;;1.30;1.20;;;11.40;99.90;;;;;;5045448;28;20045;-42
2023/10/20 10:18:54;;;;;;;2.00;1.60;;;11.40;99.90;;;;;;5044907;28;20075;-42
2023/10/20 10:21:39;;;;;;;1.40;1.25;;;11.40;99.90;;;;;;5045081;28;20063;-43
2023/10/20 10:24:08;;;;;;;1.48;1.38;;;11.40;99.90;;;;;;5044675;28;20020;-43
2023/10/20 10:26:34;;;;;;;2.70;1.40;;;11.40;99.90;;;;;;5045973;28;20166;-43
2023/10/20 10:28:59;;;;;;;1.45;1.35;;;11.50;99.90;;;;;;5045086;28;20593;-43
2023/10/20 10:31:37;;;;;;;1.10;1.00;;;11.40;99.90;;;;;;5044548;28;20460;-43
2023/10/20 10:34:04;;;;;;;2.67;1.20;;;11.50;99.90;;;;;;5044658;28;20068;-43
2023/10/20 10:36:41;;;;;;;1.40;1.30;;;11.50;99.90;;;;;;5045029;28;20562;-43
2023/10/20 10:39:06;;;;;;;1.15;1.05;;;11.50;99.90;;;;;;5044293;28;20480;-43
2023/10/20 10:41:32;;;;;;;1.45;1.35;;;11.50;99.90;;;;;;5045032;28;20027;-43
2023/10/20 10:43:58;;;;;;;1.88;1.38;;;11.50;99.90;;;;;;5045558;28;20029;-43
2023/10/20 10:46:35;;;;;;;1.90;1.30;;;11.50;99.90;;;;;;5044116;28;20020;-42
2023/10/20 10:49:10;;;;;;;1.50;1.30;;;11.50;99.90;;;;;;5045122;28;20029;-43
2023/10/20 10:51:46;;;;;;;1.70;1.30;;;11.50;99.90;;;;;;5044477;28;20500;-43
2023/10/20 10:54:13;;;;;;;1.50;1.40;;;11.50;99.90;;;;;;5043566;28;20056;-43
2023/10/20 10:56:41;;;;;;;1.75;1.65;;;11.50;99.90;;;;;;5044832;28;20155;-43
2023/10/20 10:59:08;;;;;;;1.40;1.30;;;11.50;99.90;;;;;;5044684;28;20021;-43
2023/10/20 11:01:34;;;;;;;1.63;1.33;;;11.50;99.90;;;;;;5044473;28;20440;-43
2023/10/20 11:04:00;;;;;;;1.50;1.40;;;11.60;99.90;;;;;;5044105;28;20492;-42
2023/10/20 11:06:26;;;;;;;1.10;1.00;;;11.60;99.90;;;;;;5043414;28;20091;-43
2023/10/20 11:08:52;;;;;;;1.63;1.35;;;11.60;99.90;;;;;;5045412;28;20583;-43
2023/10/20 11:11:18;;;;;;;1.35;1.17;;;11.60;99.90;;;;;;5044105;28;20017;-42
2023/10/20 11:13:44;;;;;;;1.38;1.20;;;11.60;99.90;;;;;;5044442;28;20483;-42
2023/10/20 11:16:12;;;;;;;1.85;1.27;;;11.60;99.90;;;;;;5044436;28;20063;-42
2023/10/20 11:18:43;;;;;;;1.33;1.10;;;11.60;99.90;;;;;;5044433;28;20517;-42
2023/10/20 11:21:12;;;;;;;1.27;1.00;;;11.60;99.90;;;;;;5043269;28;20032;-42
2023/10/20 11:23:37;;;;;;;0.98;0.98;;;11.60;99.90;;;;;;5044599;28;20590;-43
2023/10/20 11:26:14;;;;;;;1.10;1.00;;;11.60;99.90;;;;;;5043636;28;20070;-43
2023/10/20 11:28:40;;;;;;;1.88;1.35;;;11.60;99.90;;;;;;5033724;28;20025;-43
2023/10/20 11:31:06;;;;;;;1.20;1.10;;;11.60;99.90;;;;;;5044030;28;20116;-43
2023/10/20 11:33:32;;;;;;;1.25;1.15;;;11.60;99.90;;;;;;5044028;28;20072;-43
2023/10/20 11:36:00;;;;;;;1.65;1.55;;;11.60;99.90;;;;;;5043293;28;20491;-43
2023/10/20 11:38:29;;;;;;;1.20;1.10;;;11.50;99.90;;;;;;5041368;28;20464;-43
2023/10/20 11:40:55;;;;;;;1.40;1.30;;;11.60;99.90;;;;;;5044793;28;20523;-42
2023/10/20 11:43:20;;;;;;;1.60;1.50;;;11.60;99.90;;;;;;5042530;28;20032;-43
2023/10/20 11:45:46;;;;;;;1.40;1.15;;;11.60;99.90;;;;;;5044862;28;20074;-43
2023/10/20 11:48:11;;;;;;;1.30;1.20;;;11.70;99.90;;;;;;5043389;28;20468;-43
2023/10/20 11:50:37;;;;;;;1.25;1.15;;;11.70;99.90;;;;;;5043006;28;20134;-43
2023/10/20 11:53:03;;;;;;;1.20;1.10;;;11.70;99.90;;;;;;5043329;28;20040;-42
2023/10/20 11:55:28;;;;;;;1.55;1.40;;;11.70;99.90;;;;;;5042801;28;20041;-43
2023/10/20 11:57:54;;;;;;;1.50;1.40;;;11.70;99.90;;;;;;5043576;28;20070;-43
2023/10/20 12:00:19;;;;;;;1.27;1.17;;;11.70;99.90;;;;;;5043325;28;20029;-43
2023/10/20 12:02:45;;;;;;;1.50;1.40;;;11.70;99.90;;;;;;5043847;28;20032;-42
2023/10/20 12:05:11;;;;;;;1.00;1.00;;;11.70;99.90;;;;;;5043098;28;20074;-43
2023/10/20 12:07:37;;;;;;;1.20;1.10;;;11.60;99.90;;;;;;5043861;28;20025;-43
2023/10/20 12:10:05;;;;;;;1.50;1.38;;;11.60;99.90;;;;;;5042480;28;20571;-42
2023/10/20 12:12:31;;;;;;;1.30;1.20;;;11.60;99.90;;;;;;5043151;28;20034;-42
2023/10/20 12:14:57;;;;;;;1.33;1.20;;;11.70;99.90;;;;;;5043787;28;20037;-43
2023/10/20 12:17:24;;;;;;;1.20;1.10;;;11.70;99.90;;;;;;5042422;28;20113;-42
2023/10/20 12:19:50;;;;;;;1.25;1.10;;;11.70;99.90;;;;;;5045882;28;20569;-43
2023/10/20 12:22:17;;;;;;;1.00;0.90;;;11.70;99.90;;;;;;5048043;28;20035;-42
2023/10/20 12:24:43;;;;;;;1.40;1.30;;;11.70;99.90;;;;;;5047129;28;20028;-46
2023/10/20 12:27:09;;;;;;;1.05;1.00;;;11.70;99.90;;;;;;5047051;28;20296;-43
2023/10/20 12:29:35;;;;;;;1.10;1.00;;;11.60;99.90;;;;;;5047393;28;20091;-43
2023/10/20 12:32:03;;;;;;;1.20;1.10;;;11.60;99.90;;;;;;5046003;28;20053;-43
2023/10/20 12:34:28;;;;;;;1.17;1.08;;;11.60;99.90;;;;;;5047250;28;20071;-42
2023/10/20 12:36:54;;;;;;;1.27;1.17;;;11.60;99.90;;;;;;5048015;28;20391;-42
2023/10/20 12:39:20;;;;;;;1.75;1.65;;;11.60;99.90;;;;;;5046527;28;20842;-42
2023/10/20 12:41:49;;;;;;;1.38;1.27;;;11.50;99.90;;;;;;5047766;28;20080;-43
2023/10/20 12:44:15;;;;;;;1.50;1.40;;;11.50;99.90;;;;;;5046302;28;20446;-42
2023/10/20 12:46:41;;;;;;;1.60;1.50;;;11.50;99.90;;;;;;5046849;28;20112;-42
2023/10/20 12:49:06;;;;;;;1.17;1.17;;;11.50;99.90;;;;;;5046724;28;20039;-43
2023/10/20 12:51:36;;;;;;;1.42;1.30;;;11.50;99.90;;;;;;5047779;28;20021;-42
2023/10/20 12:54:03;;;;;;;2.05;1.40;;;11.60;99.90;;;;;;5046192;28;20120;-42
2023/10/20 12:56:29;;;;;;;1.35;1.25;;;11.60;99.90;;;;;;5046632;28;20041;-43
2023/10/20 12:58:55;;;;;;;1.60;1.50;;;11.60;99.90;;;;;;5046575;28;20079;-43